Time;durP1;ratioP1;P1;durP2;ratioP2;P2;SDS_P1;SDS_P2;PMS_P1;PMS_P2;Temp;Humidity;BMP_temperature;BMP_pressure;BME280_temperature;BME280_humidity;BME280_pressure;Samples;Min_cycle;Max_cycle;Signal;HPM_P1;HPM_P2
2023/05/26 00:01:49;;;;;;;;;;;11.80;72.60;;;;;;5015028;28;19921;-84
2023/05/26 00:04:18;;;;;;;;;;;11.80;72.70;;;;;;4995740;28;20626;-83
2023/05/26 00:06:46;;;;;;;;;;;11.60;73.10;;;;;;4991059;28;19972;-83
2023/05/26 00:09:11;;;;;;;;;;;11.60;72.70;;;;;;4992587;28;20004;-84
2023/05/26 00:11:37;;;;;;;;;;;11.60;73.20;;;;;;4998668;28;20360;-85
2023/05/26 00:14:02;;;;;;;;;;;11.50;73.90;;;;;;5015008;28;19918;-84
2023/05/26 00:16:28;;;;;;;;;;;11.60;73.50;;;;;;5017355;28;19921;-84
2023/05/26 00:18:53;;;;;;;;;;;11.50;73.50;;;;;;4997167;28;19957;-84
2023/05/26 00:21:19;;;;;;;;;;;11.50;74.00;;;;;;4995124;28;19917;-84
2023/05/26 00:23:44;;;;;;;;;;;11.50;73.40;;;;;;4995962;28;19910;-84
2023/05/26 00:26:10;;;;;;;;;;;11.40;73.40;;;;;;4997966;28;20500;-84
2023/05/26 00:28:35;;;;;;;;;;;11.40;73.50;;;;;;5008725;28;19921;-83
2023/05/26 00:31:01;;;;;;;;;;;11.30;73.60;;;;;;5011082;28;19928;-84
2023/05/26 00:33:26;;;;;;;;;;;11.30;74.00;;;;;;4995419;28;19910;-84
2023/05/26 00:35:52;;;;;;;;;;;11.30;73.80;;;;;;5006682;28;19965;-85
2023/05/26 00:38:17;;;;;;;;;;;11.20;74.60;;;;;;5000156;28;19925;-84
2023/05/26 00:40:42;;;;;;;;;;;11.10;74.20;;;;;;4994660;28;19914;-84
2023/05/26 00:43:08;;;;;;;;;;;11.20;74.40;;;;;;4996634;28;19917;-83
2023/05/26 00:45:36;;;;;;;;;;;11.30;73.70;;;;;;4991848;28;19949;-84
2023/05/26 00:48:02;;;;;;;;;;;11.20;74.00;;;;;;5012419;28;19914;-83
2023/05/26 00:50:29;;;;;;;;;;;11.10;74.70;;;;;;4998836;28;20374;-84
2023/05/26 00:52:55;;;;;;;;;;;11.20;74.30;;;;;;5005341;28;19922;-82
2023/05/26 00:55:21;;;;;;;;;;;11.10;74.20;;;;;;4993827;28;19925;-84
2023/05/26 00:57:46;;;;;;;;;;;11.00;75.00;;;;;;4996205;28;19917;-84
2023/05/26 01:00:12;;;;;;;;;;;10.90;75.70;;;;;;4998864;28;20033;-84
2023/05/26 01:02:39;;;;;;;;;;;10.90;75.80;;;;;;4992345;28;19913;-84
2023/05/26 01:05:06;;;;;;;;;;;10.90;75.30;;;;;;4990202;28;20004;-84
2023/05/26 01:07:32;;;;;;;;;;;10.90;75.60;;;;;;4995222;28;20004;-84
2023/05/26 01:09:57;;;;;;;;;;;10.80;76.30;;;;;;5016379;28;20663;-83
2023/05/26 01:12:38;;;;;;;;;;;10.90;76.10;;;;;;4997715;28;20067;-84
2023/05/26 01:15:09;;;;;;;;;;;10.80;76.10;;;;;;4992580;28;20317;-84
2023/05/26 01:17:40;;;;;;;;;;;10.80;76.20;;;;;;4989323;28;19913;-83
2023/05/26 01:20:07;;;;;;;;;;;10.70;76.60;;;;;;4995800;28;19922;-84
2023/05/26 01:22:37;;;;;;;;;;;10.80;76.50;;;;;;5009100;28;19917;-85
2023/05/26 01:25:17;;;;;;;;;;;10.80;76.50;;;;;;5013095;28;19923;-85
2023/05/26 01:28:01;;;;;;;;;;;10.80;75.70;;;;;;5010515;28;19972;-86
2023/05/26 01:30:27;;;;;;;;;;;10.80;76.00;;;;;;4999413;28;19961;-85
2023/05/26 01:32:52;;;;;;;;;;;10.70;76.80;;;;;;5011536;28;19921;-86
2023/05/26 01:35:18;;;;;;;;;;;10.70;77.10;;;;;;5014328;28;19914;-86
2023/05/26 01:37:45;;;;;;;;;;;10.70;77.10;;;;;;5001824;28;19917;-85
2023/05/26 01:40:10;;;;;;;;;;;10.60;76.80;;;;;;5003613;28;19968;-85
2023/05/26 01:42:38;;;;;;;;;;;10.60;77.10;;;;;;4999027;28;20352;-85
2023/05/26 01:45:11;;;;;;;;;;;10.60;77.60;;;;;;4999042;28;19914;-85
2023/05/26 01:47:37;;;;;;;;;;;10.50;78.00;;;;;;5002115;28;19914;-85
2023/05/26 01:50:03;;;;;;;;;;;10.60;77.70;;;;;;5009725;28;19917;-85
2023/05/26 01:52:31;;;;;;;;;;;10.60;77.50;;;;;;5014260;28;19922;-86
2023/05/26 01:54:57;;;;;;;;;;;10.50;77.50;;;;;;4995302;28;20285;-85
2023/05/26 01:57:23;;;;;;;;;;;10.50;77.30;;;;;;4993738;28;19921;-85
2023/05/26 01:59:51;;;;;;;;;;;10.40;77.30;;;;;;4997504;28;19909;-85
2023/05/26 02:02:16;;;;;;;;;;;10.30;78.00;;;;;;4994268;28;19917;-85
2023/05/26 02:04:41;;;;;;;;;;;10.40;78.00;;;;;;4993935;28;19909;-85
2023/05/26 02:07:07;;;;;;;;;;;10.40;77.40;;;;;;4989650;28;19918;-84
2023/05/26 02:09:33;;;;;;;;;;;10.20;77.50;;;;;;4995851;28;19949;-84
2023/05/26 02:11:58;;;;;;;;;;;10.10;78.00;;;;;;4991250;28;19989;-84
2023/05/26 02:14:23;;;;;;;;;;;10.10;78.50;;;;;;4991469;28;19921;-86
2023/05/26 02:16:49;;;;;;;;;;;10.20;78.80;;;;;;4993249;28;19968;-85
2023/05/26 02:19:15;;;;;;;;;;;10.10;78.50;;;;;;5000457;28;19960;-85
2023/05/26 02:21:41;;;;;;;;;;;10.20;78.80;;;;;;4987543;28;19963;-84
2023/05/26 02:24:06;;;;;;;;;;;10.10;78.40;;;;;;4992669;28;20431;-85
2023/05/26 02:26:32;;;;;;;;;;;10.10;78.50;;;;;;4991556;28;20009;-85
2023/05/26 02:28:57;;;;;;;;;;;10.10;78.30;;;;;;5009855;28;19922;-84
2023/05/26 02:31:23;;;;;;;;;;;10.10;78.60;;;;;;5011332;28;19929;-85
2023/05/26 02:33:49;;;;;;;;;;;10.10;78.20;;;;;;5009063;28;19968;-85
2023/05/26 02:36:14;;;;;;;;;;;10.10;78.70;;;;;;4993272;28;19918;-84
2023/05/26 02:38:40;;;;;;;;;;;10.10;79.20;;;;;;5006673;28;19914;-84
2023/05/26 02:41:06;;;;;;;;;;;10.10;79.10;;;;;;4999575;28;19914;-84
2023/05/26 02:43:31;;;;;;;;;;;10.00;79.30;;;;;;4994951;28;20427;-84
2023/05/26 02:45:57;;;;;;;;;;;10.00;78.90;;;;;;4989830;28;19944;-84
2023/05/26 02:48:22;;;;;;;;;;;10.10;78.90;;;;;;4999704;28;19941;-84
2023/05/26 02:50:48;;;;;;;;;;;10.00;79.20;;;;;;4993223;28;19917;-84
2023/05/26 02:53:15;;;;;;;;;;;10.00;78.80;;;;;;4993714;28;19940;-85
2023/05/26 02:55:40;;;;;;;;;;;9.90;78.40;;;;;;4990271;28;20400;-85
2023/05/26 02:58:06;;;;;;;;;;;9.90;78.70;;;;;;5000463;28;20000;-85
2023/05/26 03:00:31;;;;;;;;;;;9.90;78.10;;;;;;5010065;28;19940;-85
2023/05/26 03:02:57;;;;;;;;;;;9.90;78.70;;;;;;4993591;28;20272;-85
2023/05/26 03:05:22;;;;;;;;;;;9.90;78.80;;;;;;5006711;28;19914;-85
2023/05/26 03:07:48;;;;;;;;;;;9.90;78.70;;;;;;4992688;28;19918;-84
2023/05/26 03:10:13;;;;;;;;;;;9.70;79.00;;;;;;5003937;28;19917;-85
2023/05/26 03:12:39;;;;;;;;;;;9.60;79.20;;;;;;4989639;28;19921;-83
2023/05/26 03:15:04;;;;;;;;;;;9.60;79.80;;;;;;4990727;28;19918;-84
2023/05/26 03:17:30;;;;;;;;;;;9.60;80.00;;;;;;4991351;28;20405;-86
2023/05/26 03:19:56;;;;;;;;;;;9.60;80.00;;;;;;5002227;28;19921;-84
2023/05/26 03:22:22;;;;;;;;;;;9.60;80.00;;;;;;4993460;28;19914;-85
2023/05/26 03:24:47;;;;;;;;;;;9.70;79.80;;;;;;4994980;28;19936;-84
2023/05/26 03:27:13;;;;;;;;;;;9.80;79.60;;;;;;4995850;28;19914;-84
2023/05/26 03:29:38;;;;;;;;;;;9.90;79.00;;;;;;4996503;28;19914;-85
2023/05/26 03:32:04;;;;;;;;;;;9.70;79.00;;;;;;4990772;28;19924;-85
2023/05/26 03:34:30;;;;;;;;;;;9.60;79.60;;;;;;4997457;28;19913;-83
2023/05/26 03:36:55;;;;;;;;;;;9.70;79.70;;;;;;5009709;28;19968;-84
2023/05/26 03:39:24;;;;;;;;;;;9.60;79.50;;;;;;5012325;28;19921;-85
2023/05/26 03:41:49;;;;;;;;;;;9.40;80.20;;;;;;4993704;28;19933;-84
2023/05/26 03:44:19;;;;;;;;;;;9.40;80.20;;;;;;5009465;28;19928;-85
2023/05/26 03:46:47;;;;;;;;;;;9.30;80.60;;;;;;4994138;28;19976;-85
2023/05/26 03:49:13;;;;;;;;;;;9.30;81.00;;;;;;5009364;28;19914;-84
2023/05/26 03:51:38;;;;;;;;;;;9.30;80.80;;;;;;4991745;28;20028;-84
2023/05/26 03:54:04;;;;;;;;;;;9.30;81.00;;;;;;4995429;28;19914;-84
2023/05/26 03:56:30;;;;;;;;;;;9.30;81.20;;;;;;4994293;28;20313;-84
2023/05/26 03:58:55;;;;;;;;;;;9.50;80.90;;;;;;4992328;28;19914;-85
2023/05/26 04:01:22;;;;;;;;;;;9.50;80.60;;;;;;4999116;28;19976;-85
2023/05/26 04:03:47;;;;;;;;;;;9.40;80.70;;;;;;4996893;28;19918;-86
2023/05/26 04:06:13;;;;;;;;;;;9.50;80.90;;;;;;5010443;28;20262;-86
2023/05/26 04:08:38;;;;;;;;;;;9.50;80.80;;;;;;5011011;28;19914;-86
2023/05/26 04:11:04;;;;;;;;;;;9.60;80.60;;;;;;5002255;28;19932;-85
2023/05/26 04:13:30;;;;;;;;;;;9.60;80.60;;;;;;5004745;28;19937;-86
2023/05/26 04:15:55;;;;;;;;;;;9.50;80.90;;;;;;5005781;28;19905;-83
2023/05/26 04:18:23;;;;;;;;;;;9.60;80.90;;;;;;5004098;28;19914;-85
2023/05/26 04:20:48;;;;;;;;;;;9.50;81.00;;;;;;5010010;28;19953;-85
2023/05/26 04:23:14;;;;;;;;;;;9.70;80.80;;;;;;5005695;28;19925;-86
2023/05/26 04:25:40;;;;;;;;;;;9.60;80.80;;;;;;5001406;28;19937;-86
2023/05/26 04:28:07;;;;;;;;;;;9.70;80.10;;;;;;5009499;28;19959;-85
2023/05/26 04:30:38;;;;;;;;;;;9.70;80.50;;;;;;5007841;28;19957;-85
2023/05/26 04:33:05;;;;;;;;;;;9.70;80.90;;;;;;5001405;28;19914;-85
2023/05/26 04:35:31;;;;;;;;;;;9.60;80.80;;;;;;5002043;28;19914;-83
2023/05/26 04:37:56;;;;;;;;;;;9.50;81.10;;;;;;5000364;28;19917;-86
2023/05/26 04:40:22;;;;;;;;;;;9.60;81.20;;;;;;4997726;28;20370;-86
2023/05/26 04:42:48;;;;;;;;;;;9.60;80.90;;;;;;5009250;28;20055;-86
2023/05/26 04:45:14;;;;;;;;;;;9.60;80.90;;;;;;4995647;28;19917;-85
2023/05/26 04:47:40;;;;;;;;;;;9.60;81.20;;;;;;4994458;28;19999;-85
2023/05/26 04:50:06;;;;;;;;;;;9.60;81.30;;;;;;4992580;28;19918;-85
2023/05/26 04:52:32;;;;;;;;;;;9.80;80.80;;;;;;4994520;28;20400;-85
2023/05/26 04:54:57;;;;;;;;;;;9.80;81.00;;;;;;4994489;28;19968;-85
2023/05/26 04:57:23;;;;;;;;;;;9.90;80.70;;;;;;4994049;28;19918;-86
2023/05/26 04:59:49;;;;;;;;;;;9.90;80.90;;;;;;4993996;28;19955;-84
2023/05/26 05:02:15;;;;;;;;;;;9.90;80.80;;;;;;4991891;28;19949;-84
2023/05/26 05:04:42;;;;;;;;;;;10.00;80.40;;;;;;4991104;28;20389;-84
2023/05/26 05:07:08;;;;;;;;;;;10.00;80.50;;;;;;4991495;28;19910;-85
2023/05/26 05:09:33;;;;;;;;;;;10.10;79.90;;;;;;4990766;28;19960;-84
2023/05/26 05:11:59;;;;;;;;;;;10.20;79.90;;;;;;4990421;28;19941;-86
2023/05/26 05:14:24;;;;;;;;;;;10.10;80.20;;;;;;4998374;28;19957;-83
2023/05/26 05:16:50;;;;;;;;;;;10.10;80.10;;;;;;4992494;28;19914;-84
2023/05/26 05:19:15;;;;;;;;;;;10.10;79.90;;;;;;4993028;28;19917;-85
2023/05/26 05:21:41;;;;;;;;;;;10.30;79.90;;;;;;5003963;28;20378;-83
2023/05/26 05:24:06;;;;;;;;;;;10.20;79.60;;;;;;4990969;28;19917;-85
2023/05/26 05:26:32;;;;;;;;;;;10.20;79.90;;;;;;5004334;28;19917;-80
2023/05/26 05:28:57;;;;;;;;;;;10.10;79.70;;;;;;4981653;28;20052;-82
2023/05/26 05:31:23;;;;;;;;;;;10.20;79.40;;;;;;4976857;28;19987;-86
2023/05/26 05:33:48;;;;;;;;;;;10.20;79.60;;;;;;4986482;28;19914;-82
2023/05/26 05:36:14;;;;;;;;;;;10.30;79.90;;;;;;4986997;28;19918;-83
2023/05/26 05:38:39;;;;;;;;;;;10.50;79.20;;;;;;4990561;28;19921;-81
2023/05/26 05:41:05;;;;;;;;;;;10.50;79.30;;;;;;4999432;28;20000;-86
2023/05/26 05:43:30;;;;;;;;;;;10.50;78.70;;;;;;4986831;28;20428;-86
2023/05/26 05:45:56;;;;;;;;;;;10.50;78.60;;;;;;4988857;28;19913;-88
2023/05/26 05:48:21;;;;;;;;;;;10.30;79.60;;;;;;4990213;28;19929;-84
2023/05/26 05:50:46;;;;;;;;;;;10.50;79.70;;;;;;4981915;28;19921;-86
2023/05/26 05:53:12;;;;;;;;;;;10.50;79.20;;;;;;4990553;28;20361;-86
2023/05/26 05:55:37;;;;;;;;;;;10.50;79.50;;;;;;4989894;28;19918;-86
2023/05/26 05:58:03;;;;;;;;;;;10.60;78.00;;;;;;4988190;28;19952;-85
2023/05/26 06:00:29;;;;;;;;;;;10.80;78.10;;;;;;4985525;28;20013;-86
2023/05/26 06:02:55;;;;;;;;;;;10.80;77.80;;;;;;4998020;28;20461;-85
2023/05/26 06:05:20;;;;;;;;;;;10.70;77.80;;;;;;4999323;28;19909;-86
2023/05/26 06:07:46;;;;;;;;;;;10.70;77.10;;;;;;4985804;28;20017;-85
2023/05/26 06:10:11;;;;;;;;;;;10.60;77.90;;;;;;4984348;28;19913;-85
2023/05/26 06:12:37;;;;;;;;;;;10.60;77.80;;;;;;4990466;28;19926;-85
2023/05/26 06:15:02;;;;;;;;;;;10.60;78.20;;;;;;4991330;28;19947;-86
2023/05/26 06:17:28;;;;;;;;;;;10.70;77.90;;;;;;4991681;28;19917;-85
2023/05/26 06:19:53;;;;;;;;;;;10.70;78.20;;;;;;5007836;28;20385;-88
2023/05/26 06:22:19;;;;;;;;;;;10.80;77.70;;;;;;4989960;28;19921;-85
2023/05/26 06:24:44;;;;;;;;;;;10.90;76.40;;;;;;4990337;28;19922;-84
2023/05/26 06:27:10;;;;;;;;;;;11.10;76.30;;;;;;4988052;28;20052;-87
2023/05/26 06:29:35;;;;;;;;;;;10.90;76.30;;;;;;5004228;28;20292;-84
2023/05/26 06:32:01;;;;;;;;;;;11.00;76.60;;;;;;4989006;28;19928;-84
2023/05/26 06:34:26;;;;;;;;;;;11.00;76.20;;;;;;4987649;28;19914;-86
2023/05/26 06:36:54;;;;;;;;;;;10.90;77.20;;;;;;4987112;28;20898;-85
2023/05/26 06:39:20;;;;;;;;;;;10.90;76.60;;;;;;4987356;28;20006;-84
2023/05/26 06:41:45;;;;;;;;;;;10.80;77.20;;;;;;4983578;28;20008;-87
2023/05/26 06:44:11;;;;;;;;;;;10.80;76.70;;;;;;4996734;28;19983;-86
2023/05/26 06:46:36;;;;;;;;;;;10.70;77.30;;;;;;4993555;28;19917;-87
2023/05/26 06:49:02;;;;;;;;;;;10.80;77.00;;;;;;4990413;28;19934;-85
2023/05/26 06:51:27;;;;;;;;;;;10.80;77.50;;;;;;4992490;28;19918;-86
2023/05/26 06:53:53;;;;;;;;;;;10.90;76.70;;;;;;4991455;28;19921;-88
2023/05/26 06:56:18;;;;;;;;;;;11.10;75.90;;;;;;4987586;28;19921;-88
2023/05/26 06:58:44;;;;;;;;;;;11.20;76.00;;;;;;4987164;28;19918;-84
2023/05/26 07:01:09;;;;;;;;;;;11.10;75.90;;;;;;4994431;28;19944;-86
2023/05/26 07:03:35;;;;;;;;;;;11.10;75.30;;;;;;4991416;28;19972;-85
2023/05/26 07:06:00;;;;;;;;;;;11.00;76.00;;;;;;5014648;28;19914;-88
2023/05/26 07:08:26;;;;;;;;;;;11.10;76.00;;;;;;5022967;28;19922;-87
2023/05/26 07:10:52;;;;;;;;;;;11.00;75.50;;;;;;5005121;28;20020;-79
2023/05/26 07:13:17;;;;;;;;;;;11.00;75.10;;;;;;5014615;28;19984;-84
2023/05/26 07:15:46;;;;;;;;;;;11.20;75.40;;;;;;5012982;28;19914;-81
2023/05/26 07:18:11;;;;;;;;;;;11.10;75.30;;;;;;5012175;28;19914;-83
2023/05/26 07:20:37;;;;;;;;;;;11.30;75.70;;;;;;5005519;28;19921;-86
2023/05/26 07:23:03;;;;;;;;;;;11.30;75.50;;;;;;4997428;28;19929;-84
2023/05/26 07:25:28;;;;;;;;;;;11.40;75.30;;;;;;5002886;28;19929;-87
2023/05/26 07:27:54;;;;;;;;;;;11.60;75.70;;;;;;5017986;28;19922;-85
2023/05/26 07:30:19;;;;;;;;;;;11.70;75.50;;;;;;5001626;28;19921;-86
2023/05/26 07:32:45;;;;;;;;;;;11.80;74.60;;;;;;5004808;28;20005;-86
2023/05/26 07:35:11;;;;;;;;;;;11.60;74.60;;;;;;5002122;28;19918;-85
2023/05/26 07:37:37;;;;;;;;;;;11.60;74.80;;;;;;5006351;28;19920;-86
2023/05/26 07:40:04;;;;;;;;;;;11.80;75.70;;;;;;5000389;28;19913;-87
2023/05/26 07:45:03;;;;;;;;;;;11.60;74.90;;;;;;5037021;28;19925;-91
2023/05/26 07:47:31;;;;;;;;;;;11.60;75.70;;;;;;5045093;28;19920;-88
2023/05/26 07:49:57;;;;;;;;;;;11.70;76.30;;;;;;5014685;28;20406;-86
2023/05/26 07:52:23;;;;;;;;;;;11.70;75.60;;;;;;5023779;28;20582;-86
2023/05/26 07:54:48;;;;;;;;;;;11.90;74.60;;;;;;5042538;22;20002;-81
2023/05/26 07:57:14;;;;;;;;;;;11.90;73.80;;;;;;5035781;28;19913;-83
2023/05/26 07:59:39;;;;;;;;;;;11.90;73.30;;;;;;5018189;28;20012;-83
2023/05/26 08:02:05;;;;;;;;;;;12.00;73.10;;;;;;5018646;28;20027;-82
2023/05/26 08:04:31;;;;;;;;;;;12.10;72.90;;;;;;5013931;28;20119;-83
2023/05/26 08:06:56;;;;;;;;;;;12.30;73.20;;;;;;5014697;28;20288;-80
2023/05/26 08:09:22;;;;;;;;;;;12.30;74.10;;;;;;5016201;28;20016;-81
2023/05/26 08:11:47;;;;;;;;;;;12.30;72.50;;;;;;5015092;28;19928;-81
2023/05/26 08:14:12;;;;;;;;;;;12.50;72.10;;;;;;5033945;28;20380;-80
2023/05/26 08:16:38;;;;;;;;;;;12.50;72.20;;;;;;5011654;28;19920;-80
2023/05/26 08:19:03;;;;;;;;;;;12.50;72.60;;;;;;5015806;28;19936;-80
2023/05/26 08:21:29;;;;;;;;;;;12.40;72.80;;;;;;5030230;28;19921;-80
2023/05/26 08:23:54;;;;;;;;;;;12.50;72.20;;;;;;5019135;28;19917;-84
2023/05/26 08:26:20;;;;;;;;;;;12.50;72.10;;;;;;5034944;28;19928;-84
2023/05/26 08:28:45;;;;;;;;;;;12.50;72.80;;;;;;5034399;28;20259;-82
2023/05/26 08:31:12;;;;;;;;;;;12.70;72.40;;;;;;5017707;28;19917;-81
2023/05/26 08:33:37;;;;;;;;;;;12.90;71.90;;;;;;5026642;28;19913;-83
2023/05/26 08:36:03;;;;;;;;;;;13.00;72.60;;;;;;5033814;28;20332;-84
2023/05/26 08:38:30;;;;;;;;;;;13.10;70.40;;;;;;5033555;28;19910;-84
2023/05/26 08:40:56;;;;;;;;;;;13.00;70.10;;;;;;5016845;28;20312;-85
2023/05/26 08:43:25;;;;;;;;;;;12.90;70.50;;;;;;5031600;28;19924;-85
2023/05/26 08:45:51;;;;;;;;;;;12.70;71.40;;;;;;5031721;28;20376;-85
2023/05/26 08:48:17;;;;;;;;;;;12.70;70.60;;;;;;5015044;28;19920;-83
2023/05/26 08:50:47;;;;;;;;;;;12.90;70.80;;;;;;5038019;28;19910;-84
2023/05/26 08:53:12;;;;;;;;;;;12.80;70.60;;;;;;5031989;28;19915;-83
2023/05/26 08:55:38;;;;;;;;;;;12.80;71.00;;;;;;5050141;28;19944;-85
2023/05/26 08:58:04;;;;;;;;;;;12.90;71.20;;;;;;5040091;28;19920;-86
2023/05/26 09:00:30;;;;;;;;;;;13.00;71.40;;;;;;5039611;28;20399;-85
2023/05/26 09:02:56;;;;;;;;;;;13.10;70.50;;;;;;5035777;28;19946;-85
2023/05/26 09:05:22;;;;;;;;;;;13.10;70.10;;;;;;5037455;28;19913;-83
2023/05/26 09:07:47;;;;;;;;;;;13.10;70.70;;;;;;5017315;28;19971;-82
2023/05/26 09:10:19;;;;;;;;;;;13.30;69.80;;;;;;5018161;28;20303;-83
2023/05/26 09:12:45;;;;;;;;;;;13.60;69.60;;;;;;5036332;28;19923;-84
2023/05/26 09:15:16;;;;;;;;;;;13.60;68.50;;;;;;5019537;28;22274;-85
2023/05/26 09:17:42;;;;;;;;;;;13.60;69.60;;;;;;5034662;28;19913;-82
2023/05/26 09:20:08;;;;;;;;;;;13.60;70.40;;;;;;5017802;28;19974;-82
2023/05/26 09:22:34;;;;;;;;;;;13.70;70.30;;;;;;5017388;28;19913;-82
2023/05/26 09:24:59;;;;;;;;;;;13.80;69.70;;;;;;5037166;28;20012;-83
2023/05/26 09:27:25;;;;;;;;;;;13.60;69.00;;;;;;5015998;28;19925;-83
2023/05/26 09:30:03;;;;;;;;;;;13.60;69.20;;;;;;5035357;28;19952;-82
2023/05/26 09:32:29;;;;;;;;;;;13.90;70.40;;;;;;5017114;28;19917;-84
2023/05/26 09:34:56;;;;;;;;;;;13.90;69.00;;;;;;5015318;28;19913;-83
2023/05/26 09:37:26;;;;;;;;;;;14.00;69.10;;;;;;5032970;28;19921;-82
2023/05/26 09:39:51;;;;;;;;;;;14.10;69.10;;;;;;5031518;28;20316;-84
2023/05/26 09:42:17;;;;;;;;;;;14.10;69.10;;;;;;5013879;28;19917;-83
2023/05/26 09:44:47;;;;;;;;;;;14.30;69.30;;;;;;5011485;28;20003;-84
2023/05/26 09:47:18;;;;;;;;;;;14.40;68.50;;;;;;5009584;28;19913;-83
2023/05/26 09:49:44;;;;;;;;;;;14.40;68.20;;;;;;5021152;28;19921;-83
2023/05/26 09:52:10;;;;;;;;;;;14.60;67.10;;;;;;5012585;28;19920;-83
2023/05/26 09:54:35;;;;;;;;;;;14.50;66.70;;;;;;5012848;28;19917;-82
2023/05/26 09:57:04;;;;;;;;;;;14.50;67.20;;;;;;5013174;28;19921;-83
2023/05/26 09:59:38;;;;;;;;;;;14.60;66.10;;;;;;5010177;28;19917;-85
2023/05/26 10:02:05;;;;;;;;;;;14.60;65.30;;;;;;5012369;28;19941;-84
2023/05/26 10:04:30;;;;;;;;;;;14.60;65.20;;;;;;5012487;28;19920;-82
2023/05/26 10:06:56;;;;;;;;;;;14.50;65.70;;;;;;5030365;28;19917;-84
2023/05/26 10:09:22;;;;;;;;;;;14.50;66.40;;;;;;5012793;28;19967;-81
2023/05/26 10:11:49;;;;;;;;;;;14.60;66.70;;;;;;5038436;28;19913;-80
2023/05/26 10:14:14;;;;;;;;;;;14.60;66.10;;;;;;5040919;28;19921;-80
2023/05/26 10:16:41;;;;;;;;;;;14.70;64.90;;;;;;5022368;28;19935;-83
2023/05/26 10:19:07;;;;;;;;;;;14.80;65.00;;;;;;5038547;28;19913;-81
2023/05/26 10:21:35;;;;;;;;;;;14.70;68.10;;;;;;5018196;28;19913;-84
2023/05/26 10:24:16;;;;;;;;;;;14.90;65.70;;;;;;5036820;28;20003;-84
2023/05/26 10:26:42;;;;;;;;;;;15.00;68.30;;;;;;5033141;28;19913;-83
2023/05/26 10:29:10;;;;;;;;;;;15.00;64.30;;;;;;5028494;28;20391;-81
2023/05/26 10:31:36;;;;;;;;;;;15.00;64.70;;;;;;5015361;28;20022;-81
2023/05/26 10:34:11;;;;;;;;;;;15.10;64.10;;;;;;5036570;28;19909;-82
2023/05/26 10:36:37;;;;;;;;;;;15.20;64.00;;;;;;5017626;28;19913;-82
2023/05/26 10:39:08;;;;;;;;;;;15.10;63.90;;;;;;5017555;28;19913;-81
2023/05/26 10:41:35;;;;;;;;;;;15.20;64.50;;;;;;5017401;28;19913;-82
2023/05/26 10:44:00;;;;;;;;;;;15.30;64.30;;;;;;5035940;28;19909;-84
2023/05/26 10:46:45;;;;;;;;;;;15.30;63.60;;;;;;5016423;28;20008;-84
2023/05/26 10:49:20;;;;;;;;;;;15.30;63.20;;;;;;5016575;28;19962;-83
2023/05/26 10:51:51;;;;;;;;;;;15.30;63.50;;;;;;5017593;28;19923;-84
2023/05/26 10:54:21;;;;;;;;;;;15.30;64.50;;;;;;5032869;28;19978;-83
2023/05/26 10:56:48;;;;;;;;;;;15.60;66.40;;;;;;5017114;28;19914;-85
2023/05/26 10:59:29;;;;;;;;;;;15.90;64.20;;;;;;5016393;28;20008;-85
2023/05/26 11:01:55;;;;;;;;;;;15.90;62.50;;;;;;5034432;28;20035;-85
2023/05/26 11:04:38;;;;;;;;;;;15.90;61.20;;;;;;5015585;28;19909;-86
2023/05/26 11:07:04;;;;;;;;;;;15.80;63.40;;;;;;5035203;28;20328;-84
2023/05/26 11:09:31;;;;;;;;;;;15.60;63.50;;;;;;5017339;28;19996;-84
2023/05/26 11:11:57;;;;;;;;;;;15.60;65.00;;;;;;5022036;28;20296;-86
2023/05/26 11:14:30;;;;;;;;;;;15.70;63.10;;;;;;5032263;28;19909;-84
2023/05/26 11:16:57;;;;;;;;;;;15.60;64.60;;;;;;5033840;28;19920;-85
2023/05/26 11:19:42;;;;;;;;;;;15.70;63.70;;;;;;5016493;28;20319;-83
2023/05/26 11:22:09;;;;;;;;;;;15.80;65.30;;;;;;5017471;28;19909;-84
2023/05/26 11:24:35;;;;;;;;;;;15.90;64.10;;;;;;5018265;28;19909;-84
2023/05/26 11:27:01;;;;;;;;;;;15.90;64.40;;;;;;5034934;28;19909;-85
2023/05/26 11:29:27;;;;;;;;;;;15.90;63.50;;;;;;5015215;28;19913;-84
2023/05/26 11:31:53;;;;;;;;;;;16.00;62.50;;;;;;5034253;28;19952;-83
2023/05/26 11:34:18;;;;;;;;;;;16.00;62.90;;;;;;5033546;28;19914;-84
2023/05/26 11:36:45;;;;;;;;;;;16.00;64.00;;;;;;5016685;28;19909;-84
2023/05/26 11:39:11;;;;;;;;;;;16.30;63.30;;;;;;5016584;28;20411;-84
2023/05/26 11:41:37;;;;;;;;;;;16.10;62.80;;;;;;5033622;28;19905;-82
2023/05/26 11:44:05;;;;;;;;;;;16.20;63.30;;;;;;5017724;28;20049;-83
2023/05/26 11:46:32;;;;;;;;;;;16.20;62.80;;;;;;5016451;28;19913;-83
2023/05/26 11:48:59;;;;;;;;;;;16.00;62.30;;;;;;5034908;28;19995;-84
2023/05/26 11:51:24;;;;;;;;;;;16.10;64.10;;;;;;5017680;28;20416;-85
2023/05/26 11:53:54;;;;;;;;;;;16.20;64.30;;;;;;5033600;28;19916;-84
2023/05/26 11:56:20;;;;;;;;;;;16.20;63.10;;;;;;5015926;28;19925;-84
2023/05/26 11:58:46;;;;;;;;;;;16.20;63.10;;;;;;5016601;28;19909;-85
2023/05/26 12:01:12;;;;;;;;;;;16.30;62.50;;;;;;5016000;28;20115;-85
2023/05/26 12:03:40;;;;;;;;;;;16.40;63.00;;;;;;5033504;28;19909;-85
2023/05/26 12:06:06;;;;;;;;;;;16.40;61.40;;;;;;5032166;28;19948;-84
2023/05/26 12:08:47;;;;;;;;;;;16.40;60.70;;;;;;5015880;28;19917;-81
2023/05/26 12:11:20;;;;;;;;;;;16.30;60.00;;;;;;5015561;28;19914;-82
2023/05/26 12:13:47;;;;;;;;;;;16.40;59.20;;;;;;5028109;28;19909;-83
2023/05/26 12:16:22;;;;;;;;;;;16.40;58.60;;;;;;5015388;28;19960;-81
2023/05/26 12:18:50;;;;;;;;;;;16.30;59.90;;;;;;5023824;28;19949;-83
2023/05/26 12:21:15;;;;;;;;;;;16.40;59.70;;;;;;5016292;28;19963;-83
2023/05/26 12:23:41;;;;;;;;;;;16.50;56.50;;;;;;5016538;28;19913;-82
2023/05/26 12:26:13;;;;;;;;;;;16.50;55.10;;;;;;5015329;28;19968;-82
2023/05/26 12:28:39;;;;;;;;;;;16.50;55.50;;;;;;5031795;28;19909;-84
2023/05/26 12:31:05;;;;;;;;;;;16.50;57.40;;;;;;5031746;28;20421;-81
2023/05/26 12:33:31;;;;;;;;;;;16.50;58.20;;;;;;5020982;28;19924;-84
2023/05/26 12:35:56;;;;;;;;;;;16.70;54.80;;;;;;5014043;28;19913;-85
2023/05/26 12:38:22;;;;;;;;;;;16.60;54.40;;;;;;5033548;28;19916;-85
2023/05/26 12:40:48;;;;;;;;;;;16.60;55.10;;;;;;5034221;28;19970;-85
2023/05/26 12:43:13;;;;;;;;;;;17.00;57.90;;;;;;5014359;28;19914;-85
2023/05/26 12:45:39;;;;;;;;;;;17.00;54.00;;;;;;5014479;28;20016;-82
2023/05/26 12:48:05;;;;;;;;;;;17.10;53.70;;;;;;5032082;28;19916;-81
2023/05/26 12:50:30;;;;;;;;;;;17.10;50.60;;;;;;5033904;28;19921;-83
2023/05/26 12:52:56;;;;;;;;;;;17.10;50.80;;;;;;5033908;28;20331;-83
2023/05/26 12:55:23;;;;;;;;;;;17.10;49.90;;;;;;5011623;28;19932;-84
2023/05/26 12:57:49;;;;;;;;;;;17.10;51.90;;;;;;5030209;28;19936;-83
2023/05/26 13:00:15;;;;;;;;;;;17.10;52.40;;;;;;5031079;28;20357;-83
2023/05/26 13:02:40;;;;;;;;;;;17.30;51.60;;;;;;5013818;28;19913;-83
2023/05/26 13:05:06;;;;;;;;;;;17.20;51.30;;;;;;5015262;28;20421;-83
2023/05/26 13:07:36;;;;;;;;;;;17.20;49.00;;;;;;5032808;28;20019;-85
2023/05/26 13:10:02;;;;;;;;;;;17.20;49.60;;;;;;5032214;28;20015;-81
2023/05/26 13:12:28;;;;;;;;;;;17.20;48.80;;;;;;5012380;28;19917;-84
2023/05/26 13:14:53;;;;;;;;;;;17.30;48.50;;;;;;5022461;28;20382;-83
2023/05/26 13:17:19;;;;;;;;;;;17.50;48.70;;;;;;5014219;28;19921;-84
2023/05/26 13:19:45;;;;;;;;;;;17.60;47.50;;;;;;5018483;28;19919;-83
2023/05/26 13:22:10;;;;;;;;;;;17.60;46.40;;;;;;5015085;28;19971;-83
2023/05/26 13:24:36;;;;;;;;;;;17.50;45.70;;;;;;5012395;28;19928;-84
2023/05/26 13:27:02;;;;;;;;;;;17.50;45.60;;;;;;5012691;28;19920;-84
2023/05/26 13:29:28;;;;;;;;;;;17.50;48.20;;;;;;5019179;28;19921;-83
2023/05/26 13:31:55;;;;;;;;;;;17.50;46.00;;;;;;5032110;28;20451;-87
2023/05/26 13:34:21;;;;;;;;;;;17.60;46.40;;;;;;5008910;28;19909;-87
2023/05/26 13:36:46;;;;;;;;;;;17.60;46.30;;;;;;5021374;28;19979;-84
2023/05/26 13:39:12;;;;;;;;;;;17.70;45.10;;;;;;5024247;28;19909;-84
2023/05/26 13:41:38;;;;;;;;;;;17.70;46.80;;;;;;5014588;28;19913;-83
2023/05/26 13:44:03;;;;;;;;;;;17.70;45.40;;;;;;5016037;28;20331;-82
2023/05/26 13:46:29;;;;;;;;;;;17.60;46.60;;;;;;5014329;28;20830;-84
2023/05/26 13:48:54;;;;;;;;;;;17.70;43.90;;;;;;5029933;28;19913;-83
2023/05/26 13:51:20;;;;;;;;;;;17.60;44.80;;;;;;5032872;28;21363;-84
2023/05/26 13:53:45;;;;;;;;;;;17.50;42.80;;;;;;5017475;28;19920;-84
2023/05/26 13:56:11;;;;;;;;;;;17.50;45.50;;;;;;5017115;28;19917;-84
2023/05/26 13:58:37;;;;;;;;;;;17.60;46.40;;;;;;5017315;28;19921;-84
2023/05/26 14:01:02;;;;;;;;;;;17.70;45.00;;;;;;5017003;28;19995;-83
2023/05/26 14:03:28;;;;;;;;;;;17.80;44.40;;;;;;5013310;28;19917;-82
2023/05/26 14:05:53;;;;;;;;;;;17.90;46.80;;;;;;5011265;28;19967;-84
2023/05/26 14:08:19;;;;;;;;;;;17.90;44.30;;;;;;5011135;28;19917;-82
2023/05/26 14:10:44;;;;;;;;;;;17.80;43.50;;;;;;5009911;28;19941;-80
2023/05/26 14:13:11;;;;;;;;;;;17.60;44.60;;;;;;5029180;28;19913;-80
2023/05/26 14:15:36;;;;;;;;;;;17.60;44.90;;;;;;5032837;28;19913;-84
2023/05/26 14:18:02;;;;;;;;;;;17.60;44.40;;;;;;5024466;28;19919;-82